createdAt,value
2023-04-06T00:00:50.106Z,84.20
2023-04-06T00:01:50.110Z,83.67
2023-04-06T00:02:50.170Z,83.36
2023-04-06T00:03:50.110Z,83.78
2023-04-06T00:04:50.085Z,83.67
2023-04-06T00:05:50.057Z,83.78
2023-04-06T00:06:50.049Z,84.09
2023-04-06T00:07:50.028Z,84.30
2023-04-06T00:08:50.017Z,85.25
2023-04-06T00:09:50.008Z,86.19
2023-04-06T00:10:50.002Z,85.60
2023-04-06T00:11:50.008Z,86.40
2023-04-06T00:12:49.977Z,86.40
2023-04-06T00:13:49.965Z,86.29
2023-04-06T00:14:49.957Z,86.08
2023-04-06T00:15:49.952Z,86.23
2023-04-06T00:16:50.033Z,85.49
2023-04-06T00:17:49.986Z,85.08
2023-04-06T00:18:49.916Z,84.76
2023-04-06T00:19:49.908Z,84.34
2023-04-06T00:20:49.897Z,84.72
2023-04-06T00:21:49.927Z,84.72
2023-04-06T00:22:49.889Z,84.44
2023-04-06T00:23:49.866Z,84.66
2023-04-06T00:24:49.856Z,84.41
2023-04-06T00:25:49.834Z,84.83
2023-04-06T00:26:49.884Z,84.66
2023-04-06T00:27:49.823Z,86.12
2023-04-06T00:28:49.813Z,85.18
2023-04-06T00:29:49.823Z,84.97
2023-04-06T00:30:49.787Z,85.14
2023-04-06T00:31:49.830Z,84.55
2023-04-06T00:32:49.787Z,84.44
2023-04-06T00:33:49.761Z,84.66
2023-04-06T00:34:49.761Z,84.55
2023-04-06T00:35:49.795Z,84.13
2023-04-06T00:36:49.766Z,84.03
2023-04-06T00:37:49.747Z,83.81
2023-04-06T00:38:49.705Z,84.38
2023-04-06T00:39:49.716Z,85.08
2023-04-06T00:40:49.686Z,86.06
2023-04-06T00:41:49.701Z,85.85
2023-04-06T00:42:49.676Z,85.08
2023-04-06T00:43:49.665Z,85.53
2023-04-06T00:44:49.657Z,86.06
2023-04-06T00:45:49.673Z,85.74
2023-04-06T00:46:49.726Z,85.74
2023-04-06T00:47:49.657Z,85.05
2023-04-06T00:48:49.616Z,85.22
2023-04-06T00:49:49.620Z,85.01
2023-04-06T00:50:49.606Z,85.95
2023-04-06T00:51:49.592Z,85.64
2023-04-06T00:52:49.568Z,85.22
2023-04-06T00:53:49.566Z,85.99
2023-04-06T00:54:49.555Z,87.00
2023-04-06T00:55:49.538Z,86.79
2023-04-06T00:56:49.532Z,86.37
2023-04-06T00:57:49.516Z,85.25
2023-04-06T00:58:49.598Z,84.80
2023-04-06T00:59:49.501Z,85.22
2023-04-06T01:00:49.486Z,85.47
2023-04-06T01:01:49.542Z,85.99
2023-04-06T01:02:49.507Z,86.27
2023-04-06T01:03:49.448Z,85.95
2023-04-06T01:04:49.446Z,85.53
2023-04-06T01:05:49.509Z,85.01
2023-04-06T01:06:49.443Z,84.91
2023-04-06T01:07:49.429Z,85.25
2023-04-06T01:08:49.405Z,85.89
2023-04-06T01:09:49.412Z,87.21
2023-04-06T01:10:49.374Z,87.63
2023-04-06T01:11:49.385Z,86.69
2023-04-06T01:12:49.378Z,86.06
2023-04-06T01:13:49.349Z,85.47
2023-04-06T01:14:49.346Z,84.91
2023-04-06T01:15:49.375Z,84.94
2023-04-06T01:16:49.331Z,84.52
2023-04-06T01:17:49.374Z,84.10
2023-04-06T01:18:49.312Z,84.00
2023-04-06T01:19:49.292Z,84.14
2023-04-06T01:20:49.277Z,85.08
2023-04-06T01:21:49.285Z,85.30
2023-04-06T01:22:49.255Z,85.40
2023-04-06T01:23:49.250Z,85.30
2023-04-06T01:24:49.239Z,84.98
2023-04-06T01:25:49.245Z,84.88
2023-04-06T01:26:49.251Z,84.45
2023-04-06T01:27:49.201Z,84.03
2023-04-06T01:28:49.203Z,83.97
2023-04-06T01:29:49.180Z,82.81
2023-04-06T01:30:49.183Z,83.09
2023-04-06T01:31:49.283Z,84.28
2023-04-06T01:32:49.168Z,83.44
2023-04-06T01:33:49.175Z,83.44
2023-04-06T01:34:49.124Z,85.13
2023-04-06T01:35:49.183Z,84.49
2023-04-06T01:36:49.119Z,83.76
2023-04-06T01:37:49.107Z,84.49
2023-04-06T01:38:49.092Z,85.55
2023-04-06T01:39:49.094Z,86.28
2023-04-06T01:40:49.081Z,86.60
2023-04-06T01:41:49.083Z,88.28
2023-04-06T01:42:49.050Z,88.17
2023-04-06T01:43:49.060Z,89.07
2023-04-06T01:44:49.036Z,88.24
2023-04-06T01:45:49.019Z,88.76
2023-04-06T01:46:49.062Z,88.13
2023-04-06T01:47:49.027Z,87.50
2023-04-06T01:48:48.992Z,87.60
2023-04-06T01:49:48.983Z,87.19
2023-04-06T01:50:48.973Z,87.67
2023-04-06T01:51:48.956Z,87.92
2023-04-06T01:52:48.961Z,88.02
2023-04-06T01:53:48.938Z,87.71
2023-04-06T01:54:48.951Z,87.15
2023-04-06T01:55:48.925Z,87.08
2023-04-06T01:56:48.917Z,87.19
2023-04-06T01:57:48.911Z,87.29
2023-04-06T01:58:48.936Z,87.29
2023-04-06T01:59:48.884Z,86.77
2023-04-06T02:00:48.885Z,87.08
2023-04-06T02:01:48.867Z,87.19
2023-04-06T02:02:48.865Z,87.92
2023-04-06T02:03:48.883Z,87.92
2023-04-06T02:04:48.833Z,87.29
2023-04-06T02:05:48.840Z,86.55
2023-04-06T02:06:48.816Z,85.93
2023-04-06T02:07:48.816Z,85.40
2023-04-06T02:08:48.789Z,84.98
2023-04-06T02:09:48.780Z,84.60
2023-04-06T02:10:48.815Z,84.39
2023-04-06T02:11:48.751Z,84.08
2023-04-06T02:12:48.757Z,83.54
2023-04-06T02:13:48.753Z,84.08
2023-04-06T02:14:48.730Z,83.34
2023-04-06T02:15:48.730Z,84.08
2023-04-06T02:16:48.776Z,83.76
2023-04-06T02:17:48.765Z,84.39
2023-04-06T02:18:48.699Z,83.76
2023-04-06T02:19:48.686Z,83.76
2023-04-06T02:20:48.665Z,83.23
2023-04-06T02:21:48.676Z,83.86
2023-04-06T02:22:48.658Z,84.22
2023-04-06T02:23:48.628Z,84.32
2023-04-06T02:24:48.639Z,83.69
2023-04-06T02:25:48.612Z,84.42
2023-04-06T02:26:48.618Z,84.32
2023-04-06T02:27:48.599Z,84.74
2023-04-06T02:28:48.593Z,84.84
2023-04-06T02:29:48.590Z,85.48
2023-04-06T02:30:48.560Z,84.78
2023-04-06T02:31:48.643Z,86.36
2023-04-06T02:32:48.586Z,87.41
2023-04-06T02:33:48.542Z,88.74
2023-04-06T02:34:48.519Z,89.26
2023-04-06T02:35:48.553Z,89.79
2023-04-06T02:36:48.492Z,88.32
2023-04-06T02:37:48.490Z,88.21
2023-04-06T02:38:48.471Z,88.32
2023-04-06T02:39:48.477Z,88.00
2023-04-06T02:40:48.450Z,88.00
2023-04-06T02:41:48.450Z,89.16
2023-04-06T02:42:48.439Z,89.37
2023-04-06T02:43:48.420Z,88.70
2023-04-06T02:44:48.427Z,88.21
2023-04-06T02:45:48.405Z,88.53
2023-04-06T02:46:48.400Z,87.79
2023-04-06T02:47:48.412Z,87.54
2023-04-06T02:48:48.365Z,88.28
2023-04-06T02:49:48.727Z,89.16
2023-04-06T02:50:48.355Z,88.84
2023-04-06T02:51:48.331Z,88.53
2023-04-06T02:52:48.338Z,87.54
2023-04-06T02:53:48.320Z,87.05
2023-04-06T02:54:48.309Z,86.32
2023-04-06T02:55:48.295Z,86.63
2023-04-06T02:56:48.284Z,87.16
2023-04-06T02:57:48.277Z,88.46
2023-04-06T02:58:48.443Z,89.89
2023-04-06T02:59:48.245Z,89.51
2023-04-06T03:00:48.246Z,88.35
2023-04-06T03:01:48.389Z,88.04
2023-04-06T03:02:48.300Z,87.83
2023-04-06T03:03:48.309Z,87.13
2023-04-06T03:04:48.218Z,87.35
2023-04-06T03:05:48.184Z,87.35
2023-04-06T03:06:48.188Z,87.13
2023-04-06T03:07:48.182Z,86.71
2023-04-06T03:08:48.157Z,85.52
2023-04-06T03:09:48.179Z,85.45
2023-04-06T03:10:48.136Z,85.24
2023-04-06T03:11:48.131Z,84.29
2023-04-06T03:12:48.149Z,84.61
2023-04-06T03:13:48.112Z,84.50
2023-04-06T03:14:48.105Z,84.71
2023-04-06T03:15:48.179Z,85.13
2023-04-06T03:16:48.073Z,85.45
2023-04-06T03:17:48.160Z,87.55
2023-04-06T03:18:48.057Z,89.34
2023-04-06T03:19:48.030Z,88.92
2023-04-06T03:20:48.034Z,88.46
2023-04-06T03:21:48.043Z,88.67
2023-04-06T03:22:48.024Z,88.99
2023-04-06T03:23:47.993Z,89.51
2023-04-06T03:24:47.986Z,89.62
2023-04-06T03:25:48.022Z,89.30
2023-04-06T03:26:47.964Z,89.41
2023-04-06T03:27:47.956Z,89.41
2023-04-06T03:28:47.942Z,89.51
2023-04-06T03:29:47.926Z,88.78
2023-04-06T03:30:47.919Z,88.25
2023-04-06T03:31:47.952Z,87.79
2023-04-06T03:32:47.933Z,87.20
2023-04-06T03:33:47.903Z,86.15
2023-04-06T03:34:47.882Z,85.52
2023-04-06T03:35:47.921Z,85.24
2023-04-06T03:36:51.677Z,85.55
2023-04-06T03:37:48.863Z,85.77
2023-04-06T03:38:47.835Z,87.41
2023-04-06T03:39:47.830Z,88.18
2023-04-06T03:40:47.834Z,88.08
2023-04-06T03:41:47.808Z,88.29
2023-04-06T03:42:47.879Z,87.98
2023-04-06T03:43:47.791Z,87.98
2023-04-06T03:44:47.775Z,87.35
2023-04-06T03:45:47.786Z,87.13
2023-04-06T03:46:47.794Z,87.13
2023-04-06T03:47:47.825Z,87.35
2023-04-06T03:48:47.736Z,86.61
2023-04-06T03:49:47.720Z,86.08
2023-04-06T03:50:47.721Z,86.19
2023-04-06T03:51:47.694Z,85.70
2023-04-06T03:52:47.707Z,85.49
2023-04-06T03:53:47.672Z,85.70
2023-04-06T03:54:47.668Z,85.11
2023-04-06T03:55:47.652Z,85.63
2023-04-06T03:56:47.645Z,86.27
2023-04-06T03:57:47.644Z,87.32
2023-04-06T03:58:47.625Z,87.07
2023-04-06T03:59:47.615Z,86.27
2023-04-06T04:00:47.601Z,86.22
2023-04-06T04:01:47.614Z,86.16
2023-04-06T04:02:47.688Z,86.33
2023-04-06T04:03:50.200Z,86.16
2023-04-06T04:04:47.586Z,86.27
2023-04-06T04:05:47.553Z,86.47
2023-04-06T04:06:47.535Z,86.27
2023-04-06T04:07:47.553Z,85.95
2023-04-06T04:08:47.516Z,85.85
2023-04-06T04:09:47.507Z,85.95
2023-04-06T04:10:47.531Z,86.16
2023-04-06T04:11:47.490Z,86.69
2023-04-06T04:12:47.492Z,86.69
2023-04-06T04:13:47.478Z,87.63
2023-04-06T04:14:47.467Z,88.37
2023-04-06T04:15:47.444Z,88.02
2023-04-06T04:16:47.493Z,87.81
2023-04-06T04:17:47.450Z,88.44
2023-04-06T04:18:47.417Z,89.11
2023-04-06T04:19:47.402Z,88.96
2023-04-06T04:20:47.420Z,88.33
2023-04-06T04:21:47.384Z,88.96
2023-04-06T04:22:47.382Z,88.65
2023-04-06T04:23:47.360Z,87.81
2023-04-06T04:24:47.364Z,87.53
2023-04-06T04:25:47.332Z,87.42
2023-04-06T04:26:47.349Z,87.53
2023-04-06T04:27:47.330Z,87.53
2023-04-06T04:28:47.318Z,87.00
2023-04-06T04:29:47.345Z,86.90
2023-04-06T04:30:47.292Z,86.65
2023-04-06T04:31:47.361Z,87.32
2023-04-06T04:32:47.327Z,86.47
2023-04-06T04:33:47.259Z,85.95
2023-04-06T04:34:47.255Z,87.21
2023-04-06T04:35:47.271Z,88.16
2023-04-06T04:36:47.234Z,89.53
2023-04-06T04:37:47.240Z,89.32
2023-04-06T04:38:47.221Z,89.11
2023-04-06T04:39:47.199Z,88.48
2023-04-06T04:40:47.244Z,88.27
2023-04-06T04:41:47.177Z,87.85
2023-04-06T04:42:47.205Z,87.53
2023-04-06T04:43:47.164Z,88.27
2023-04-06T04:44:47.157Z,88.16
2023-04-06T04:45:47.183Z,88.27
2023-04-06T04:46:47.134Z,88.79
2023-04-06T04:47:47.170Z,89.95
2023-04-06T04:48:47.113Z,89.22
2023-04-06T04:49:47.090Z,88.27
2023-04-06T04:50:47.083Z,88.48
2023-04-06T04:51:47.089Z,87.95
2023-04-06T04:52:47.080Z,87.42
2023-04-06T04:53:47.063Z,87.32
2023-04-06T04:54:47.054Z,87.74
2023-04-06T04:55:47.036Z,87.53
2023-04-06T04:56:47.023Z,87.53
2023-04-06T04:57:47.019Z,88.12
2023-04-06T04:58:47.018Z,87.74
2023-04-06T04:59:47.005Z,88.48
2023-04-06T05:00:46.985Z,88.44
2023-04-06T05:01:54.718Z,88.58
2023-04-06T05:02:48.109Z,87.91
2023-04-06T05:03:47.048Z,88.12
2023-04-06T05:04:46.947Z,88.33
2023-04-06T05:05:46.939Z,88.12
2023-04-06T05:06:46.922Z,87.81
2023-04-06T05:07:46.919Z,87.60
2023-04-06T05:08:46.997Z,87.49
2023-04-06T05:09:46.915Z,87.32
2023-04-06T05:10:46.878Z,87.32
2023-04-06T05:11:46.877Z,87.00
2023-04-06T05:12:46.860Z,87.11
2023-04-06T05:13:46.862Z,87.00
2023-04-06T05:14:46.845Z,87.32
2023-04-06T05:15:46.854Z,87.91
2023-04-06T05:16:46.817Z,88.12
2023-04-06T05:17:46.852Z,87.38
2023-04-06T05:18:46.812Z,86.86
2023-04-06T05:19:46.780Z,87.28
2023-04-06T05:20:46.777Z,87.49
2023-04-06T05:21:46.782Z,87.60
2023-04-06T05:22:46.761Z,87.70
2023-04-06T05:23:46.780Z,87.91
2023-04-06T05:24:46.741Z,87.87
2023-04-06T05:25:46.741Z,87.45
2023-04-06T05:26:46.720Z,87.81
2023-04-06T05:27:46.718Z,88.29
2023-04-06T05:28:46.707Z,88.18
2023-04-06T05:29:46.686Z,88.08
2023-04-06T05:30:46.677Z,88.25
2023-04-06T05:31:46.725Z,86.99
2023-04-06T05:32:46.693Z,86.63
2023-04-06T05:33:46.682Z,86.43
2023-04-06T05:34:46.632Z,86.00
2023-04-06T05:35:46.657Z,87.05
2023-04-06T05:36:46.621Z,87.16
2023-04-06T05:37:46.602Z,86.60
2023-04-06T05:38:46.606Z,86.49
2023-04-06T05:39:46.580Z,85.72
2023-04-06T05:40:46.573Z,85.30
2023-04-06T05:41:46.593Z,84.88
2023-04-06T05:42:46.546Z,84.88
2023-04-06T05:43:46.551Z,84.42
2023-04-06T05:44:46.526Z,83.89
2023-04-06T05:45:46.530Z,84.06
2023-04-06T05:46:46.592Z,84.06
2023-04-06T05:47:46.506Z,83.71
2023-04-06T05:48:46.496Z,83.67
2023-04-06T05:49:46.488Z,82.62
2023-04-06T05:50:46.450Z,82.23
2023-04-06T05:51:46.483Z,81.15
2023-04-06T05:52:46.441Z,79.86
2023-04-06T05:53:46.454Z,79.26
2023-04-06T05:54:46.449Z,78.18
2023-04-06T05:55:46.416Z,77.06
2023-04-06T05:56:46.417Z,76.40
2023-04-06T05:57:46.417Z,75.01
2023-04-06T05:58:46.408Z,73.83
2023-04-06T05:59:46.364Z,72.93
2023-04-06T06:00:46.378Z,72.30
2023-04-06T06:01:46.381Z,71.44
2023-04-06T06:02:46.376Z,71.41
2023-04-06T06:03:46.353Z,70.40
2023-04-06T06:04:46.380Z,69.54
2023-04-06T06:05:46.312Z,68.99
2023-04-06T06:06:46.290Z,68.23
2023-04-06T06:07:46.292Z,66.75
2023-04-06T06:08:46.272Z,66.12
2023-04-06T06:09:46.258Z,65.68
2023-04-06T06:10:46.242Z,66.30
2023-04-06T06:11:46.248Z,65.26
2023-04-06T06:12:46.221Z,65.34
2023-04-06T06:13:46.246Z,65.00
2023-04-06T06:14:46.189Z,64.89
2023-04-06T06:15:46.195Z,63.72
2023-04-06T06:16:46.236Z,63.51
2023-04-06T06:17:46.215Z,63.20
2023-04-06T06:18:46.162Z,62.97
2023-04-06T06:19:46.154Z,63.31
2023-04-06T06:20:46.135Z,63.65
2023-04-06T06:21:46.142Z,63.31
2023-04-06T06:22:46.167Z,63.62
2023-04-06T06:23:46.119Z,63.51
2023-04-06T06:24:46.083Z,62.94
2023-04-06T06:25:46.088Z,62.73
2023-04-06T06:26:46.095Z,62.32
2023-04-06T06:27:46.058Z,63.17
2023-04-06T06:28:46.063Z,63.85
2023-04-06T06:29:46.053Z,64.58
2023-04-06T06:30:46.027Z,64.97
2023-04-06T06:31:46.073Z,64.94
2023-04-06T06:32:46.033Z,63.28
2023-04-06T06:33:46.007Z,63.48
2023-04-06T06:34:45.989Z,64.03
2023-04-06T06:35:45.987Z,64.34
2023-04-06T06:36:48.124Z,63.93
2023-04-06T06:37:45.958Z,64.14
2023-04-06T06:38:45.960Z,64.89
2023-04-06T06:39:45.945Z,64.27
2023-04-06T06:40:45.922Z,64.82
2023-04-06T06:41:45.917Z,65.03
2023-04-06T06:42:45.919Z,64.72
2023-04-06T06:43:45.915Z,64.95
2023-04-06T06:44:45.877Z,64.92
2023-04-06T06:45:46.099Z,65.37
2023-04-06T06:46:45.877Z,65.16
2023-04-06T06:47:45.891Z,65.47
2023-04-06T06:48:45.847Z,66.17
2023-04-06T06:49:45.848Z,65.55
2023-04-06T06:50:45.885Z,66.09
2023-04-06T06:51:45.811Z,66.27
2023-04-06T06:52:45.793Z,66.41
2023-04-06T06:53:45.794Z,65.96
2023-04-06T06:54:45.769Z,65.37
2023-04-06T06:55:45.780Z,64.92
2023-04-06T06:56:45.758Z,65.72
2023-04-06T06:57:45.744Z,64.69
2023-04-06T06:58:45.761Z,64.83
2023-04-06T06:59:45.777Z,63.66
2023-04-06T07:00:45.775Z,62.87
2023-04-06T07:01:45.709Z,63.79
2023-04-06T07:02:45.717Z,64.94
2023-04-06T07:03:45.785Z,64.07
2023-04-06T07:04:45.719Z,64.04
2023-04-06T07:05:45.656Z,63.19
2023-04-06T07:06:45.645Z,62.60
2023-04-06T07:07:45.637Z,63.19
2023-04-06T07:08:46.674Z,62.77
2023-04-06T07:09:46.131Z,63.92
2023-04-06T07:10:46.101Z,61.71
2023-04-06T07:11:45.914Z,61.79
2023-04-06T07:12:48.424Z,62.35
2023-04-06T07:13:47.682Z,60.85
2023-04-06T08:48:00.349Z,53.92
2023-04-06T08:48:22.455Z,54.67
2023-04-06T08:49:22.666Z,48.36
2023-04-06T08:59:32.614Z,43.90
2023-04-06T09:00:18.515Z,46.26
2023-04-06T09:01:18.511Z,48.05
2023-04-06T09:02:18.598Z,45.59
2023-04-06T09:03:18.604Z,47.88
2023-04-06T09:04:19.691Z,41.80
2023-04-06T09:05:18.471Z,45.00
2023-04-06T09:06:18.445Z,42.83
2023-04-06T09:07:18.432Z,41.90
2023-04-06T09:08:18.451Z,46.56
2023-04-06T09:09:18.424Z,41.72
2023-04-06T09:10:18.410Z,43.08
2023-04-06T09:11:18.396Z,45.26
2023-04-06T09:12:18.380Z,44.63
2023-04-06T09:13:18.375Z,44.55
2023-04-06T09:14:18.834Z,43.55
2023-04-06T09:15:19.472Z,46.51
2023-04-06T09:25:18.101Z,35.88
2023-04-06T09:26:18.083Z,36.07
2023-04-06T09:27:18.076Z,40.24
2023-04-06T09:28:18.056Z,39.01
2023-04-06T09:41:33.940Z,34.22
2023-04-06T09:42:05.416Z,33.73
2023-04-06T09:43:05.377Z,35.58
2023-04-06T09:58:50.348Z,34.47
2023-04-06T09:59:50.307Z,36.00
2023-04-06T10:00:53.009Z,37.64
2023-04-06T10:01:50.233Z,36.90
2023-04-06T10:02:50.338Z,39.93
2023-04-06T10:03:50.392Z,37.84
2023-04-06T10:04:50.220Z,36.14
2023-04-06T10:05:50.202Z,38.38
2023-04-06T10:06:50.181Z,40.30
2023-04-06T10:08:52.052Z,40.05
2023-04-06T10:09:50.155Z,38.51
2023-04-06T10:10:50.137Z,36.08
2023-04-06T10:11:50.432Z,37.82
2023-04-06T10:12:50.121Z,35.80
2023-04-06T10:13:50.101Z,37.45
2023-04-06T10:14:50.104Z,37.04
2023-04-06T10:15:50.086Z,39.99
2023-04-06T10:16:50.138Z,36.55
2023-04-06T10:17:50.103Z,36.16
2023-04-06T10:18:50.046Z,39.40
2023-04-06T10:19:50.056Z,38.14
2023-04-06T10:20:50.041Z,35.61
2023-04-06T10:21:50.011Z,40.27
2023-04-06T10:22:50.010Z,36.12
2023-04-06T10:23:50.004Z,39.15
2023-04-06T10:24:49.999Z,38.97
2023-04-06T10:25:49.969Z,40.58
2023-04-06T10:26:49.963Z,40.70
2023-04-06T10:27:49.948Z,39.69
2023-04-06T10:28:49.950Z,38.76
2023-04-06T10:29:49.987Z,38.93
2023-04-06T10:30:49.932Z,39.30
2023-04-06T10:31:49.947Z,37.48
2023-04-06T10:32:49.914Z,38.32
2023-04-06T10:33:49.892Z,36.21
2023-04-06T10:34:49.895Z,37.73
2023-04-06T10:35:49.903Z,37.71
2023-04-06T10:36:49.864Z,38.45
2023-04-06T10:37:49.851Z,39.85
2023-04-06T10:38:49.839Z,39.97
2023-04-06T10:39:49.827Z,37.61
2023-04-06T10:40:49.861Z,37.80
2023-04-06T10:41:49.809Z,37.35
2023-04-06T10:42:49.796Z,38.43
2023-04-06T10:43:49.843Z,37.61
2023-04-06T10:44:49.776Z,37.44
2023-04-06T10:45:49.825Z,37.96
2023-04-06T10:46:49.758Z,37.48
2023-04-06T10:47:49.761Z,37.29
2023-04-06T10:48:49.730Z,37.49
2023-04-06T10:49:49.719Z,37.70
2023-04-06T10:50:49.746Z,36.58
2023-04-06T10:51:49.696Z,37.80
2023-04-06T10:52:49.730Z,39.20
2023-04-06T10:53:49.734Z,40.50
2023-04-06T10:54:50.565Z,38.61
2023-04-06T10:55:49.671Z,38.10
2023-04-06T10:56:49.653Z,39.24
2023-04-06T10:57:49.640Z,39.85
2023-04-06T10:58:49.729Z,39.87
2023-04-06T10:59:49.612Z,41.07
2023-04-06T11:00:51.038Z,38.29
2023-04-06T11:01:49.653Z,38.18
2023-04-06T11:02:49.715Z,37.08
2023-04-06T11:03:49.622Z,37.30
2023-04-06T11:04:49.561Z,40.42
2023-04-06T11:05:49.578Z,35.14
2023-04-06T11:06:49.553Z,36.24
2023-04-06T11:07:49.527Z,35.09
2023-04-06T11:08:49.518Z,37.71
2023-04-06T11:10:04.557Z,38.68
2023-04-06T11:10:50.516Z,40.17
2023-04-06T11:11:49.581Z,35.16
2023-04-06T11:12:49.475Z,33.47
2023-04-06T11:13:49.474Z,33.72
2023-04-06T11:14:49.459Z,38.91
2023-04-06T11:15:49.439Z,36.30
2023-04-06T11:16:49.511Z,37.42
2023-04-06T11:17:49.431Z,34.69
2023-04-06T11:18:49.410Z,35.88
2023-04-06T11:19:49.395Z,34.72
2023-04-06T11:20:49.391Z,36.24
2023-04-06T11:21:49.473Z,35.77
2023-04-06T11:22:49.398Z,36.27
2023-04-06T11:23:49.358Z,40.22
2023-04-06T11:24:49.349Z,40.00
2023-04-06T11:25:49.692Z,35.88
2023-04-06T11:26:50.707Z,37.22
2023-04-06T11:27:49.368Z,39.15
2023-04-06T11:28:49.314Z,37.71
2023-04-06T11:29:49.304Z,37.30
2023-04-06T11:30:49.310Z,37.16
2023-04-06T11:31:49.296Z,34.45
2023-04-06T11:32:49.319Z,33.74
2023-04-06T11:33:49.267Z,37.47
2023-04-06T11:34:49.257Z,37.88
2023-04-06T11:35:49.278Z,40.11
2023-04-06T11:36:49.241Z,37.98
2023-04-06T11:37:49.231Z,37.30
2023-04-06T11:38:49.219Z,39.17
2023-04-06T11:39:49.234Z,39.17
2023-04-06T11:40:49.204Z,40.18
2023-04-06T11:41:49.231Z,38.49
2023-04-06T11:42:49.176Z,38.73
2023-04-06T11:43:49.208Z,39.62
2023-04-06T11:44:49.176Z,40.91
2023-04-06T11:45:50.351Z,41.54
2023-04-06T11:46:50.349Z,37.59
2023-04-06T11:47:50.330Z,38.57
2023-04-06T11:48:50.311Z,41.22
2023-04-06T11:49:50.261Z,36.81
2023-04-06T11:50:50.258Z,36.05
2023-04-06T11:51:50.311Z,34.74
2023-04-06T11:52:50.274Z,32.35
2023-04-06T11:53:50.263Z,32.10
2023-04-06T11:54:50.240Z,33.15
2023-04-06T11:55:50.263Z,34.88
2023-04-06T11:56:50.241Z,35.51
2023-04-06T11:57:51.204Z,38.20
2023-04-06T11:58:50.200Z,37.46
2023-04-06T11:59:50.198Z,36.46
2023-04-06T12:00:50.229Z,35.24
2023-04-06T12:01:50.278Z,37.88
2023-04-06T12:02:50.296Z,38.98
2023-04-06T12:03:50.434Z,38.66
2023-04-06T12:04:50.279Z,39.67
2023-04-06T12:05:50.144Z,37.04
2023-04-06T12:06:50.149Z,39.65
2023-04-06T12:07:50.142Z,37.73
2023-04-06T12:08:50.139Z,37.95
2023-04-06T12:09:50.113Z,37.85
2023-04-06T12:10:50.084Z,37.95
2023-04-06T12:11:50.179Z,38.72
2023-04-06T12:12:50.050Z,39.33
2023-04-06T12:13:50.052Z,39.04
2023-04-06T12:14:50.126Z,41.78
2023-04-06T12:15:52.121Z,39.13
2023-04-06T12:16:50.069Z,38.62
2023-04-06T12:17:50.051Z,38.15
2023-04-06T12:18:49.996Z,38.98
2023-04-06T12:19:49.988Z,40.47
2023-04-06T12:20:49.988Z,38.79
2023-04-06T12:21:49.996Z,37.54
2023-04-06T12:22:49.972Z,37.15
2023-04-06T12:23:49.968Z,40.45
2023-04-06T12:24:49.930Z,40.14
2023-04-06T12:25:49.945Z,36.00
2023-04-06T12:26:53.932Z,38.93
2023-04-06T12:27:51.936Z,39.72
2023-04-06T12:28:50.076Z,36.87
2023-04-06T12:29:50.039Z,37.76
2023-04-06T12:30:49.899Z,37.35
2023-04-06T12:31:50.088Z,37.96
2023-04-06T12:32:51.287Z,36.02
2023-04-06T12:33:50.851Z,38.67
2023-04-06T12:34:49.892Z,37.65
2023-04-06T12:35:49.829Z,38.89
2023-04-06T12:36:54.115Z,36.17
2023-04-06T12:37:49.932Z,38.64
2023-04-06T12:39:44.709Z,38.40
2023-04-06T12:39:49.763Z,36.27
2023-04-06T12:40:49.735Z,38.81
2023-04-06T12:41:49.833Z,38.82
2023-04-06T12:42:49.761Z,36.88
2023-04-06T12:43:49.721Z,39.80
2023-04-06T12:44:49.721Z,42.49
2023-04-06T12:45:50.704Z,39.81
2023-04-06T12:46:49.754Z,36.86
2023-04-06T12:47:49.853Z,35.36
2023-04-06T12:48:49.672Z,36.88
2023-04-06T12:49:49.651Z,38.45
2023-04-06T12:50:49.683Z,37.43
2023-04-06T12:51:49.813Z,36.34
2023-04-06T12:52:49.639Z,37.27
2023-04-06T12:53:49.624Z,37.18
2023-04-06T12:54:51.575Z,37.83
2023-04-06T12:55:50.706Z,39.64
2023-04-06T12:56:49.618Z,40.19
2023-04-06T12:57:49.773Z,40.15
2023-04-06T12:58:50.626Z,40.05
2023-04-06T12:59:49.666Z,38.89
2023-04-06T13:01:04.562Z,36.13
2023-04-06T13:01:49.736Z,34.31
2023-04-06T13:02:49.738Z,35.21
2023-04-06T13:03:49.596Z,32.98
2023-04-06T13:04:49.561Z,33.86
2023-04-06T13:05:49.526Z,31.95
2023-04-06T13:06:49.533Z,34.47
2023-04-06T13:07:49.499Z,34.81
2023-04-06T13:08:49.503Z,32.98
2023-04-06T13:09:49.580Z,32.65
2023-04-06T13:10:49.481Z,34.30
2023-04-06T13:11:49.505Z,33.81
2023-04-06T13:12:49.462Z,35.22
2023-04-06T13:13:49.443Z,35.35
2023-04-06T13:14:49.438Z,38.21
2023-04-06T13:15:49.415Z,37.61
2023-04-06T13:16:49.490Z,37.61
2023-04-06T13:17:49.418Z,38.91
2023-04-06T13:18:49.389Z,38.89
2023-04-06T13:19:49.414Z,40.88
2023-04-06T13:20:49.393Z,35.51
2023-04-06T13:21:49.396Z,35.63
2023-04-06T13:22:49.358Z,36.36
2023-04-06T13:23:49.364Z,37.89
2023-04-06T13:24:49.335Z,40.02
2023-04-06T13:25:49.326Z,36.47
2023-04-06T13:26:49.346Z,35.99
2023-04-06T13:27:49.320Z,36.08
2023-04-06T13:28:49.306Z,38.95
2023-04-06T13:29:49.283Z,39.06
2023-04-06T13:30:49.276Z,40.30
2023-04-06T13:31:49.312Z,39.98
2023-04-06T13:32:49.309Z,38.96
2023-04-06T13:33:49.252Z,37.54
2023-04-06T13:34:49.241Z,35.92
2023-04-06T13:35:49.252Z,36.24
2023-04-06T13:36:49.276Z,37.74
2023-04-06T13:37:49.213Z,37.44
2023-04-06T13:38:49.207Z,37.34
2023-04-06T13:39:49.198Z,37.76
2023-04-06T13:40:49.183Z,38.15
2023-04-06T13:41:49.187Z,37.12
2023-04-06T13:42:49.174Z,39.03
2023-04-06T13:43:49.159Z,40.41
2023-04-06T13:44:49.157Z,39.37
2023-04-06T13:45:49.243Z,36.85
2023-04-06T13:46:49.153Z,34.42
2023-04-06T13:47:49.175Z,35.14
2023-04-06T13:48:49.144Z,40.39
2023-04-06T13:49:49.105Z,36.14
2023-04-06T13:50:49.106Z,37.84
2023-04-06T13:51:49.102Z,36.24
2023-04-06T13:52:49.141Z,36.85
2023-04-06T13:53:49.101Z,39.78
2023-04-06T13:54:49.072Z,38.89
2023-04-06T13:55:49.046Z,37.30
2023-04-06T13:56:49.047Z,36.43
2023-04-06T13:57:49.049Z,37.96
2023-04-06T13:58:49.013Z,37.87
2023-04-06T13:59:48.997Z,39.18
2023-04-06T14:00:49.192Z,39.59
2023-04-06T14:01:49.005Z,40.09
2023-04-06T14:02:49.025Z,40.00
2023-04-06T14:03:49.634Z,40.93
2023-04-06T14:04:48.950Z,39.42
2023-04-06T14:05:48.968Z,39.14
2023-04-06T14:06:48.951Z,37.73
2023-04-06T14:07:48.904Z,39.87
2023-04-06T14:08:48.931Z,40.05
2023-04-06T14:09:48.897Z,38.83
2023-04-06T14:10:48.933Z,40.23
2023-04-06T14:11:48.892Z,40.34
2023-04-06T14:12:48.872Z,42.55
2023-04-06T14:13:48.846Z,39.89
2023-04-06T14:14:48.833Z,38.88
2023-04-06T14:15:48.831Z,38.17
2023-04-06T14:16:48.862Z,37.05
2023-04-06T14:17:48.925Z,39.18
2023-04-06T14:18:48.797Z,37.27
2023-04-06T14:19:48.795Z,39.00
2023-04-06T14:20:48.806Z,39.81
2023-04-06T14:21:48.771Z,39.20
2023-04-06T14:22:48.784Z,38.45
2023-04-06T14:23:48.752Z,38.15
2023-04-06T14:24:48.736Z,38.74
2023-04-06T14:25:48.742Z,37.22
2023-04-06T14:26:48.732Z,38.25
2023-04-06T14:27:48.741Z,37.24
2023-04-06T14:28:48.716Z,36.44
2023-04-06T14:29:48.694Z,38.78
2023-04-06T14:30:48.708Z,39.08
2023-04-06T14:31:48.675Z,36.63
2023-04-06T14:32:48.726Z,36.44
2023-04-06T14:33:48.721Z,37.46
2023-04-06T14:34:48.638Z,36.04
2023-04-06T14:35:48.647Z,36.97
2023-04-06T14:36:48.717Z,35.64
2023-04-06T14:37:48.653Z,37.17
2023-04-06T14:38:48.642Z,36.14
2023-04-06T14:39:48.594Z,35.92
2023-04-06T14:40:48.604Z,35.92
2023-04-06T14:41:49.821Z,36.43
2023-04-06T14:42:48.574Z,38.76
2023-04-06T14:43:48.779Z,37.42
2023-04-06T14:44:48.600Z,35.31
2023-04-06T14:45:48.549Z,35.24
2023-04-06T14:46:48.646Z,35.63
2023-04-06T14:47:48.595Z,36.04
2023-04-06T14:48:48.553Z,38.09
2023-04-06T14:49:48.500Z,37.35
2023-04-06T14:50:48.491Z,36.75
2023-04-06T14:51:48.469Z,38.78
2023-04-06T14:52:48.486Z,39.08
2023-04-06T14:53:48.456Z,37.26
2023-04-06T14:54:48.440Z,37.58
2023-04-06T14:55:48.452Z,36.66
2023-04-06T14:56:48.445Z,35.85
2023-04-06T14:57:48.471Z,37.48
2023-04-06T14:58:48.421Z,39.40
2023-04-06T14:59:48.427Z,38.88
2023-04-06T15:00:48.410Z,37.56
2023-04-06T15:01:48.476Z,35.34
2023-04-06T15:02:48.513Z,37.26
2023-04-06T15:03:48.670Z,38.79
2023-04-06T15:04:48.377Z,36.76
2023-04-06T15:05:48.382Z,35.16
2023-04-06T15:06:48.329Z,37.78
2023-04-06T15:07:48.359Z,34.95
2023-04-06T15:08:48.333Z,36.17
2023-04-06T15:09:48.337Z,38.09
2023-04-06T15:10:48.300Z,38.39